Time;durP1;ratioP1;P1;durP2;ratioP2;P2;SDS_P1;SDS_P2;PMS_P1;PMS_P2;Temp;Humidity;BMP_temperature;BMP_pressure;BME280_temperature;BME280_humidity;BME280_pressure;Samples;Min_cycle;Max_cycle;Signal;HPM_P1;HPM_P2
2022/08/16 00:00:02;;;;;;;;;;;23.40;68.00;;;;;;6219818;23;1934;-64
2022/08/16 00:02:27;;;;;;;;;;;23.40;68.00;;;;;;6246277;23;697;-63
2022/08/16 00:04:52;;;;;;;;;;;23.40;68.00;;;;;;6246297;23;750;-64
2022/08/16 00:07:18;;;;;;;;;;;23.40;68.00;;;;;;6245852;23;1288;-64
2022/08/16 00:09:43;;;;;;;;;;;23.40;68.00;;;;;;6246480;23;828;-64
2022/08/16 00:12:09;;;;;;;;;;;23.40;68.10;;;;;;6245695;23;912;-66
2022/08/16 00:14:34;;;;;;;;;;;23.40;68.10;;;;;;6246258;23;891;-65
2022/08/16 00:17:00;;;;;;;;;;;23.40;68.10;;;;;;6245871;23;1180;-63
2022/08/16 00:19:27;;;;;;;;;;;23.40;68.10;;;;;;6246348;23;1932;-65
2022/08/16 00:21:53;;;;;;;;;;;23.40;68.10;;;;;;6246165;23;832;-63
2022/08/16 00:24:20;;;;;;;;;;;23.40;68.10;;;;;;6219539;23;1030;-63
2022/08/16 00:26:45;;;;;;;;;;;23.40;68.10;;;;;;6218927;23;1569;-66
2022/08/16 00:29:12;;;;;;;;;;;23.40;68.10;;;;;;6246369;23;1054;-63
2022/08/16 00:31:37;;;;;;;;;;;23.40;68.10;;;;;;6219589;23;998;-63
2022/08/16 00:34:03;;;;;;;;;;;23.40;68.10;;;;;;6246333;23;831;-63
2022/08/16 00:36:28;;;;;;;;;;;23.40;68.10;;;;;;6245750;23;807;-64
2022/08/16 00:38:54;;;;;;;;;;;23.40;68.10;;;;;;6245891;23;1272;-64
2022/08/16 00:41:19;;;;;;;;;;;23.40;68.10;;;;;;6245895;23;1935;-64
2022/08/16 00:43:44;;;;;;;;;;;23.40;68.10;;;;;;6246138;23;876;-64
2022/08/16 00:46:22;;;;;;;;;;;23.40;68.10;;;;;;6245779;23;1073;-65
2022/08/16 00:48:49;;;;;;;;;;;23.40;68.10;;;;;;6245792;23;1230;-63
2022/08/16 00:51:15;;;;;;;;;;;23.40;68.10;;;;;;6245954;23;682;-64
2022/08/16 00:53:40;;;;;;;;;;;23.30;68.10;;;;;;6245934;23;955;-64
2022/08/16 00:56:07;;;;;;;;;;;23.40;68.10;;;;;;6218692;23;911;-63
2022/08/16 00:58:34;;;;;;;;;;;23.30;68.10;;;;;;6245736;23;1203;-64
2022/08/16 01:00:59;;;;;;;;;;;23.40;68.20;;;;;;6218996;23;1892;-65
2022/08/16 01:03:25;;;;;;;;;;;23.30;68.10;;;;;;6245804;23;875;-64
2022/08/16 01:05:50;;;;;;;;;;;23.30;68.10;;;;;;6218971;23;832;-64
2022/08/16 01:08:17;;;;;;;;;;;23.40;68.20;;;;;;6193651;23;1250;-64
2022/08/16 01:10:42;;;;;;;;;;;23.30;68.10;;;;;;6245912;23;942;-65
2022/08/16 01:13:09;;;;;;;;;;;23.30;68.10;;;;;;6218933;23;1234;-65
2022/08/16 01:15:35;;;;;;;;;;;23.40;68.20;;;;;;6218838;23;982;-66
2022/08/16 01:18:01;;;;;;;;;;;23.30;68.10;;;;;;6218977;23;1193;-67
2022/08/16 01:20:27;;;;;;;;;;;23.30;68.20;;;;;;6219049;23;1932;-66
2022/08/16 01:22:58;;;;;;;;;;;23.40;68.20;;;;;;6218951;23;884;-65
2022/08/16 01:25:24;;;;;;;;;;;23.30;68.20;;;;;;6219060;23;903;-65
2022/08/16 01:27:51;;;;;;;;;;;23.30;68.20;;;;;;6218450;23;1208;-66
2022/08/16 01:30:19;;;;;;;;;;;23.30;68.20;;;;;;6246052;23;893;-65
2022/08/16 01:32:44;;;;;;;;;;;23.30;68.20;;;;;;6245566;23;826;-66
2022/08/16 01:35:30;;;;;;;;;;;23.30;68.20;;;;;;6245662;23;831;-65
2022/08/16 01:37:55;;;;;;;;;;;23.30;68.20;;;;;;6168413;23;1306;-65
2022/08/16 01:40:25;;;;;;;;;;;23.30;68.20;;;;;;6218967;23;1877;-65
2022/08/16 01:42:50;;;;;;;;;;;23.30;68.20;;;;;;6218875;23;939;-66
2022/08/16 01:45:16;;;;;;;;;;;23.30;68.20;;;;;;6218895;23;1037;-65
2022/08/16 01:47:42;;;;;;;;;;;23.30;68.20;;;;;;6245010;23;1278;-66
2022/08/16 01:50:07;;;;;;;;;;;23.30;68.20;;;;;;6218942;23;743;-67
2022/08/16 01:52:33;;;;;;;;;;;23.30;68.20;;;;;;6245494;23;930;-66
2022/08/16 01:54:59;;;;;;;;;;;23.30;68.20;;;;;;6219001;23;839;-66
2022/08/16 01:57:24;;;;;;;;;;;23.30;68.20;;;;;;6245069;23;1290;-64
2022/08/16 01:59:49;;;;;;;;;;;23.30;68.20;;;;;;6245501;23;1889;-64
2022/08/16 02:02:15;;;;;;;;;;;23.30;68.20;;;;;;6245461;23;1017;-64
2022/08/16 02:04:40;;;;;;;;;;;23.30;68.20;;;;;;6245496;23;946;-64
2022/08/16 02:07:09;;;;;;;;;;;23.30;68.30;;;;;;6245351;23;1200;-64
2022/08/16 02:09:36;;;;;;;;;;;23.30;68.30;;;;;;6245981;23;906;-64
2022/08/16 02:12:02;;;;;;;;;;;23.30;68.20;;;;;;6245413;23;829;-64
2022/08/16 02:14:28;;;;;;;;;;;23.30;68.20;;;;;;6219047;23;837;-65
2022/08/16 02:16:57;;;;;;;;;;;23.30;68.30;;;;;;6214365;23;1188;-66
2022/08/16 02:19:23;;;;;;;;;;;23.30;68.30;;;;;;6235463;23;958;-64
2022/08/16 02:21:49;;;;;;;;;;;23.30;68.30;;;;;;6243878;23;1885;-65
2022/08/16 02:24:14;;;;;;;;;;;23.30;68.30;;;;;;6244196;23;784;-66
2022/08/16 02:26:39;;;;;;;;;;;23.30;68.30;;;;;;6243968;23;1209;-64
2022/08/16 02:29:05;;;;;;;;;;;23.30;68.30;;;;;;6217280;23;1472;-65
2022/08/16 02:31:30;;;;;;;;;;;23.30;68.30;;;;;;6244213;23;800;-65
2022/08/16 02:33:56;;;;;;;;;;;23.30;68.30;;;;;;6243814;23;843;-65
2022/08/16 02:36:21;;;;;;;;;;;23.30;68.30;;;;;;6243859;23;915;-65
2022/08/16 02:38:47;;;;;;;;;;;23.40;68.40;;;;;;6244212;23;1270;-65
2022/08/16 02:41:12;;;;;;;;;;;23.30;68.30;;;;;;6243939;23;1934;-65
2022/08/16 02:43:37;;;;;;;;;;;23.30;68.30;;;;;;6245263;23;807;-65
2022/08/16 02:46:03;;;;;;;;;;;23.30;68.30;;;;;;6245881;23;847;-66
2022/08/16 02:48:29;;;;;;;;;;;23.30;68.30;;;;;;6218779;23;1313;-68
2022/08/16 02:50:56;;;;;;;;;;;23.30;68.30;;;;;;6219445;23;786;-67
2022/08/16 02:53:22;;;;;;;;;;;23.30;68.30;;;;;;6219571;23;808;-64
2022/08/16 02:55:48;;;;;;;;;;;23.30;68.30;;;;;;6246093;23;824;-64
2022/08/16 02:58:13;;;;;;;;;;;23.30;68.30;;;;;;6245822;23;1230;-67
2022/08/16 03:00:38;;;;;;;;;;;23.30;68.40;;;;;;6245895;23;1946;-65
2022/08/16 03:03:04;;;;;;;;;;;23.30;68.30;;;;;;6245666;23;982;-66
2022/08/16 03:05:30;;;;;;;;;;;23.30;68.30;;;;;;6245656;23;847;-66
2022/08/16 03:07:55;;;;;;;;;;;23.30;68.30;;;;;;6245273;23;1273;-63
2022/08/16 03:10:21;;;;;;;;;;;23.30;68.40;;;;;;6245972;23;803;-63
2022/08/16 03:12:48;;;;;;;;;;;23.30;68.40;;;;;;6245860;23;724;-63
2022/08/16 03:15:14;;;;;;;;;;;23.30;68.40;;;;;;6245853;23;820;-63
2022/08/16 03:17:39;;;;;;;;;;;23.30;68.40;;;;;;6245767;23;1302;-64
2022/08/16 03:20:06;;;;;;;;;;;23.30;68.40;;;;;;6246873;23;1920;-63
2022/08/16 03:22:31;;;;;;;;;;;23.30;68.40;;;;;;6220178;23;832;-65
2022/08/16 03:24:57;;;;;;;;;;;23.30;68.40;;;;;;6247183;23;787;-60
2022/08/16 03:27:23;;;;;;;;;;;23.30;68.40;;;;;;6246305;23;1204;-62
2022/08/16 03:29:48;;;;;;;;;;;23.30;68.40;;;;;;6220184;23;879;-63
2022/08/16 03:32:14;;;;;;;;;;;23.30;68.40;;;;;;6246631;23;970;-63
2022/08/16 03:34:39;;;;;;;;;;;23.30;68.40;;;;;;6247329;23;870;-64
2022/08/16 03:37:05;;;;;;;;;;;23.30;68.40;;;;;;6246313;23;1199;-65
2022/08/16 03:39:30;;;;;;;;;;;23.30;68.40;;;;;;6246795;23;936;-60
2022/08/16 03:41:55;;;;;;;;;;;23.30;68.40;;;;;;6247006;23;815;-61
2022/08/16 03:44:21;;;;;;;;;;;23.30;68.40;;;;;;6247088;23;914;-65
2022/08/16 03:49:14;;;;;;;;;;;23.30;68.40;;;;;;6214323;23;672;-66
2022/08/16 03:51:41;;;;;;;;;;;23.30;68.50;;;;;;6214455;23;796;-66
2022/08/16 03:54:06;;;;;;;;;;;23.30;68.50;;;;;;6189201;23;994;-66
2022/08/16 03:56:32;;;;;;;;;;;23.30;68.40;;;;;;6163613;23;1720;-67
2022/08/16 03:58:57;;;;;;;;;;;23.30;68.40;;;;;;6215385;23;1279;-66
2022/08/16 04:01:23;;;;;;;;;;;23.30;68.50;;;;;;6188810;23;1954;-66
2022/08/16 04:03:49;;;;;;;;;;;23.30;68.40;;;;;;6189225;23;918;-65
2022/08/16 04:06:14;;;;;;;;;;;23.30;68.40;;;;;;6214875;23;820;-65
2022/08/16 04:08:40;;;;;;;;;;;23.30;68.40;;;;;;6215285;23;1195;-65
2022/08/16 04:11:05;;;;;;;;;;;23.30;68.50;;;;;;6215788;23;871;-65
2022/08/16 04:13:31;;;;;;;;;;;23.30;68.40;;;;;;6215699;23;1011;-64
2022/08/16 04:15:58;;;;;;;;;;;23.30;68.50;;;;;;6215040;23;745;-64
2022/08/16 04:18:24;;;;;;;;;;;23.30;68.50;;;;;;6215228;23;1267;-63
2022/08/16 04:20:49;;;;;;;;;;;23.30;68.50;;;;;;6188953;23;1931;-64
2022/08/16 04:23:15;;;;;;;;;;;23.30;68.50;;;;;;6215474;23;1044;-65
2022/08/16 04:25:40;;;;;;;;;;;23.30;68.50;;;;;;6214872;23;853;-65
2022/08/16 04:28:06;;;;;;;;;;;23.30;68.50;;;;;;6188828;23;1202;-64
2022/08/16 04:30:32;;;;;;;;;;;23.30;68.50;;;;;;6215165;23;848;-64
2022/08/16 04:32:57;;;;;;;;;;;23.30;68.50;;;;;;6188721;23;765;-65
2022/08/16 04:35:22;;;;;;;;;;;23.30;68.50;;;;;;6215397;23;816;-64
2022/08/16 04:37:48;;;;;;;;;;;23.30;68.50;;;;;;6215024;23;1278;-64
2022/08/16 04:40:14;;;;;;;;;;;23.30;68.50;;;;;;6215380;23;1893;-64
2022/08/16 04:42:40;;;;;;;;;;;23.30;68.50;;;;;;6188383;23;927;-64
2022/08/16 04:45:06;;;;;;;;;;;23.30;68.50;;;;;;6215150;23;850;-65
2022/08/16 04:47:31;;;;;;;;;;;23.30;68.50;;;;;;6223260;23;1590;-65
2022/08/16 04:49:57;;;;;;;;;;;23.30;68.50;;;;;;6218881;23;1006;-66
2022/08/16 04:52:23;;;;;;;;;;;23.30;68.50;;;;;;6245212;23;930;-66
2022/08/16 04:54:48;;;;;;;;;;;23.30;68.50;;;;;;6218901;23;844;-66
2022/08/16 04:57:14;;;;;;;;;;;23.30;68.50;;;;;;6217637;23;1276;-66
2022/08/16 04:59:39;;;;;;;;;;;23.30;68.60;;;;;;6218346;23;1942;-66
2022/08/16 05:02:04;;;;;;;;;;;23.30;68.60;;;;;;6218232;23;958;-66
2022/08/16 05:04:30;;;;;;;;;;;23.30;68.50;;;;;;6245527;23;1038;-66
2022/08/16 05:06:55;;;;;;;;;;;23.30;68.60;;;;;;6244266;23;1609;-66
2022/08/16 05:09:21;;;;;;;;;;;23.30;68.60;;;;;;6241433;23;970;-67
2022/08/16 05:11:46;;;;;;;;;;;23.30;68.50;;;;;;6208402;23;1049;-67
2022/08/16 05:14:12;;;;;;;;;;;23.30;68.50;;;;;;6243615;23;1244;-66
2022/08/16 05:16:37;;;;;;;;;;;23.30;68.60;;;;;;6243096;23;1005;-66
2022/08/16 05:19:03;;;;;;;;;;;23.30;68.60;;;;;;6243800;23;850;-67
2022/08/16 05:21:30;;;;;;;;;;;23.30;68.60;;;;;;6217690;23;1889;-66
2022/08/16 05:23:55;;;;;;;;;;;23.30;68.60;;;;;;6244503;23;804;-65
2022/08/16 05:26:21;;;;;;;;;;;23.30;68.60;;;;;;6242938;23;836;-66
2022/08/16 05:28:47;;;;;;;;;;;23.30;68.60;;;;;;6243803;23;1624;-65
2022/08/16 05:31:14;;;;;;;;;;;23.30;68.60;;;;;;6243714;23;820;-65
2022/08/16 05:33:40;;;;;;;;;;;23.30;68.60;;;;;;6244065;23;729;-65
2022/08/16 05:36:05;;;;;;;;;;;23.30;68.60;;;;;;6243861;23;1069;-65
2022/08/16 05:38:31;;;;;;;;;;;23.30;68.60;;;;;;6243974;23;1237;-65
2022/08/16 05:40:56;;;;;;;;;;;23.30;68.60;;;;;;6239795;23;1885;-65
2022/08/16 05:43:22;;;;;;;;;;;23.30;68.60;;;;;;6243660;23;894;-65
2022/08/16 05:45:47;;;;;;;;;;;23.30;68.60;;;;;;6243230;23;800;-65
2022/08/16 05:48:13;;;;;;;;;;;23.30;68.60;;;;;;6243678;23;1221;-65
2022/08/16 05:50:39;;;;;;;;;;;23.30;68.60;;;;;;6244227;23;813;-66
2022/08/16 05:53:04;;;;;;;;;;;23.30;68.60;;;;;;6217604;23;816;-66
2022/08/16 05:55:30;;;;;;;;;;;23.30;68.60;;;;;;6216938;23;1065;-66
2022/08/16 05:57:55;;;;;;;;;;;23.30;68.60;;;;;;6243428;23;1202;-67
2022/08/16 06:00:21;;;;;;;;;;;23.30;68.60;;;;;;6242118;23;1912;-66
2022/08/16 06:02:46;;;;;;;;;;;23.30;68.60;;;;;;6192223;23;1611;-67
2022/08/16 06:05:12;;;;;;;;;;;23.30;68.60;;;;;;6218382;23;986;-66
2022/08/16 06:07:37;;;;;;;;;;;23.30;68.60;;;;;;6244428;23;1299;-66
2022/08/16 06:10:03;;;;;;;;;;;23.30;68.70;;;;;;6245128;23;989;-67
2022/08/16 06:12:28;;;;;;;;;;;23.30;68.60;;;;;;6215158;23;838;-66
2022/08/16 06:14:58;;;;;;;;;;;23.30;68.60;;;;;;6217781;23;832;-67
2022/08/16 06:17:23;;;;;;;;;;;23.30;68.60;;;;;;6217952;23;1624;-67
2022/08/16 06:19:49;;;;;;;;;;;23.30;68.60;;;;;;6247153;23;1888;-67
2022/08/16 06:22:14;;;;;;;;;;;23.30;68.60;;;;;;6220401;23;994;-67
2022/08/16 06:24:40;;;;;;;;;;;23.30;68.60;;;;;;6246576;23;1046;-67
2022/08/16 06:27:05;;;;;;;;;;;23.30;68.60;;;;;;6219806;23;1180;-67
2022/08/16 06:29:30;;;;;;;;;;;23.30;68.60;;;;;;6246809;23;816;-67
2022/08/16 06:31:56;;;;;;;;;;;23.30;68.60;;;;;;6247141;23;871;-66
2022/08/16 06:34:21;;;;;;;;;;;23.30;68.70;;;;;;6220260;23;930;-66
2022/08/16 06:36:48;;;;;;;;;;;23.30;68.60;;;;;;6245620;23;1534;-66
2022/08/16 06:39:13;;;;;;;;;;;23.30;68.70;;;;;;6247017;23;831;-66
2022/08/16 06:41:39;;;;;;;;;;;23.30;68.60;;;;;;6246753;23;1954;-67
2022/08/16 06:44:04;;;;;;;;;;;23.30;68.60;;;;;;6246482;23;1417;-67
2022/08/16 06:46:33;;;;;;;;;;;23.30;68.70;;;;;;6245864;23;903;-64
2022/08/16 06:48:59;;;;;;;;;;;23.30;68.70;;;;;;6220238;23;1168;-64
2022/08/16 06:51:24;;;;;;;;;;;23.30;68.70;;;;;;6247448;23;915;-65
2022/08/16 06:53:50;;;;;;;;;;;23.30;68.70;;;;;;6246761;23;768;-65
2022/08/16 06:56:15;;;;;;;;;;;23.30;68.70;;;;;;6218896;23;982;-66
2022/08/16 06:58:41;;;;;;;;;;;23.30;68.70;;;;;;6246692;23;1206;-65
2022/08/16 07:01:06;;;;;;;;;;;23.30;68.70;;;;;;6246660;23;1888;-65
2022/08/16 07:03:32;;;;;;;;;;;23.30;68.70;;;;;;6219934;23;860;-65
2022/08/16 07:05:57;;;;;;;;;;;23.30;68.70;;;;;;6245759;23;808;-65
2022/08/16 07:08:23;;;;;;;;;;;23.30;68.70;;;;;;6246574;23;1275;-66
2022/08/16 07:10:49;;;;;;;;;;;23.30;68.70;;;;;;6220055;23;1022;-65
2022/08/16 07:13:14;;;;;;;;;;;23.30;68.70;;;;;;6246609;23;1202;-65
2022/08/16 07:15:41;;;;;;;;;;;23.30;68.70;;;;;;6245533;23;772;-65
2022/08/16 07:18:06;;;;;;;;;;;23.30;68.70;;;;;;6220163;23;1349;-65
2022/08/16 07:20:32;;;;;;;;;;;23.30;68.70;;;;;;6246456;23;1930;-65
2022/08/16 07:22:57;;;;;;;;;;;23.30;68.70;;;;;;6219641;23;1042;-65
2022/08/16 07:25:23;;;;;;;;;;;23.30;68.70;;;;;;6246333;23;824;-65
2022/08/16 07:27:48;;;;;;;;;;;23.30;68.70;;;;;;6245874;23;1210;-65
2022/08/16 07:30:14;;;;;;;;;;;23.30;68.70;;;;;;6245759;23;867;-65
2022/08/16 07:32:39;;;;;;;;;;;23.30;68.70;;;;;;6246614;23;776;-66
2022/08/16 07:35:05;;;;;;;;;;;23.30;68.70;;;;;;6246553;23;864;-67
2022/08/16 07:37:30;;;;;;;;;;;23.30;68.70;;;;;;6245476;23;1170;-66
2022/08/16 07:39:56;;;;;;;;;;;23.30;68.70;;;;;;6246485;23;1931;-66
2022/08/16 07:42:21;;;;;;;;;;;23.30;68.70;;;;;;6219726;23;982;-67
2022/08/16 07:44:47;;;;;;;;;;;23.30;68.70;;;;;;6219478;23;1048;-66
2022/08/16 07:47:13;;;;;;;;;;;23.30;68.70;;;;;;6245104;23;1202;-66
2022/08/16 07:49:38;;;;;;;;;;;23.30;68.70;;;;;;6246607;23;1068;-66
2022/08/16 07:52:04;;;;;;;;;;;23.30;68.70;;;;;;6245825;23;1001;-66
2022/08/16 07:54:29;;;;;;;;;;;23.30;68.70;;;;;;6218950;23;1064;-66
2022/08/16 07:56:54;;;;;;;;;;;23.30;68.70;;;;;;6245098;23;1451;-66
2022/08/16 07:59:20;;;;;;;;;;;23.30;68.70;;;;;;6245848;23;1045;-67
2022/08/16 08:01:45;;;;;;;;;;;23.30;68.70;;;;;;6245547;23;1894;-66
2022/08/16 08:04:12;;;;;;;;;;;23.30;68.70;;;;;;6245932;23;809;-66
2022/08/16 08:06:38;;;;;;;;;;;23.30;68.70;;;;;;6245456;23;886;-66
2022/08/16 08:09:03;;;;;;;;;;;23.30;68.70;;;;;;6219735;23;1202;-65
2022/08/16 08:11:29;;;;;;;;;;;23.30;68.70;;;;;;6245580;23;776;-65
2022/08/16 08:13:55;;;;;;;;;;;23.30;68.70;;;;;;6219013;23;915;-65
2022/08/16 08:16:21;;;;;;;;;;;23.30;68.70;;;;;;6245201;23;759;-65
2022/08/16 08:18:47;;;;;;;;;;;23.30;68.70;;;;;;6245735;23;1297;-65
2022/08/16 08:21:12;;;;;;;;;;;23.30;68.70;;;;;;6246391;23;1989;-65
2022/08/16 08:23:38;;;;;;;;;;;23.30;68.70;;;;;;6245735;23;1030;-64
2022/08/16 08:26:03;;;;;;;;;;;23.30;68.70;;;;;;6244781;23;1037;-65
2022/08/16 08:28:30;;;;;;;;;;;23.30;68.70;;;;;;6245563;23;1286;-66
2022/08/16 08:30:57;;;;;;;;;;;23.30;68.70;;;;;;6245873;23;819;-66
2022/08/16 08:33:22;;;;;;;;;;;23.30;68.70;;;;;;6245072;23;811;-66
2022/08/16 08:35:48;;;;;;;;;;;23.30;68.70;;;;;;6239091;23;1026;-66
2022/08/16 08:38:14;;;;;;;;;;;23.30;68.60;;;;;;6241871;23;1257;-66
2022/08/16 08:40:40;;;;;;;;;;;23.30;68.60;;;;;;6239864;23;2226;-66
2022/08/16 08:43:09;;;;;;;;;;;23.30;68.60;;;;;;6216689;23;801;-66
2022/08/16 08:45:34;;;;;;;;;;;23.30;68.60;;;;;;6216813;23;871;-67
2022/08/16 08:48:00;;;;;;;;;;;23.30;68.60;;;;;;6242948;23;1291;-68
2022/08/16 08:50:25;;;;;;;;;;;23.30;68.60;;;;;;6243553;23;1017;-66
2022/08/16 08:52:52;;;;;;;;;;;23.30;68.60;;;;;;6243484;23;766;-66
2022/08/16 08:55:21;;;;;;;;;;;23.30;68.60;;;;;;6243469;23;828;-66
2022/08/16 08:57:47;;;;;;;;;;;23.30;68.60;;;;;;6243149;23;1714;-66
2022/08/16 09:00:13;;;;;;;;;;;23.30;68.60;;;;;;6242091;23;1889;-66
2022/08/16 09:02:38;;;;;;;;;;;23.30;68.60;;;;;;6217323;23;908;-66
2022/08/16 09:05:04;;;;;;;;;;;23.30;68.60;;;;;;6243782;23;908;-66
2022/08/16 09:07:29;;;;;;;;;;;23.30;68.60;;;;;;6216020;23;1289;-66
2022/08/16 09:09:55;;;;;;;;;;;23.30;68.60;;;;;;6217095;23;1272;-66
2022/08/16 09:12:22;;;;;;;;;;;23.30;68.60;;;;;;6217336;23;863;-66
2022/08/16 09:14:47;;;;;;;;;;;23.30;68.60;;;;;;6243650;23;827;-66
2022/08/16 09:17:13;;;;;;;;;;;23.30;68.60;;;;;;6242598;23;1276;-66
2022/08/16 09:19:39;;;;;;;;;;;23.30;68.60;;;;;;6243130;23;788;-66
2022/08/16 09:22:05;;;;;;;;;;;23.30;68.60;;;;;;6244963;23;1963;-66
2022/08/16 09:24:30;;;;;;;;;;;23.30;68.60;;;;;;6244256;23;797;-66
2022/08/16 09:26:56;;;;;;;;;;;23.30;68.60;;;;;;6244143;23;1250;-66
2022/08/16 09:29:21;;;;;;;;;;;23.30;68.60;;;;;;6244132;23;830;-66
2022/08/16 09:31:47;;;;;;;;;;;23.30;68.60;;;;;;6217864;23;813;-66
2022/08/16 09:34:13;;;;;;;;;;;23.30;68.60;;;;;;6244610;23;836;-67
2022/08/16 09:36:38;;;;;;;;;;;23.30;68.60;;;;;;6217182;23;1013;-66
2022/08/16 09:39:04;;;;;;;;;;;23.30;68.60;;;;;;6244633;23;1195;-64
2022/08/16 09:41:30;;;;;;;;;;;23.30;68.70;;;;;;6244571;23;1936;-65
2022/08/16 09:43:56;;;;;;;;;;;23.30;68.70;;;;;;6217487;23;1252;-65
2022/08/16 09:46:22;;;;;;;;;;;23.30;68.70;;;;;;6243898;23;678;-65
2022/08/16 09:48:48;;;;;;;;;;;23.30;68.70;;;;;;6234126;22;3748;-65
2022/08/16 09:51:13;;;;;;;;;;;23.30;68.70;;;;;;6214970;23;775;-65
2022/08/16 09:53:39;;;;;;;;;;;23.30;68.70;;;;;;6213969;23;819;-65
2022/08/16 09:56:09;;;;;;;;;;;23.30;68.70;;;;;;6212633;23;1010;-65
2022/08/16 09:58:34;;;;;;;;;;;23.30;68.70;;;;;;6212870;23;1321;-65
2022/08/16 10:01:00;;;;;;;;;;;23.30;68.70;;;;;;6214381;23;1901;-66
2022/08/16 10:03:25;;;;;;;;;;;23.30;68.70;;;;;;6214580;23;1042;-64
2022/08/16 10:05:50;;;;;;;;;;;23.30;68.70;;;;;;6214026;23;1006;-65
2022/08/16 10:08:16;;;;;;;;;;;23.30;68.70;;;;;;6214309;23;1291;-66
2022/08/16 10:13:10;;;;;;;;;;;23.30;68.70;;;;;;6214656;23;907;-65
2022/08/16 10:13:27;;;;;;;;;;;23.30;68.70;;;;;;6214131;23;1686;-65
2022/08/16 10:15:58;;;;;;;;;;;23.30;68.70;;;;;;6212594;23;886;-65
2022/08/16 10:18:26;;;;;;;;;;;23.30;68.70;;;;;;6213767;23;1246;-65
2022/08/16 10:20:51;;;;;;;;;;;23.30;68.70;;;;;;6214594;23;1888;-65
2022/08/16 10:23:17;;;;;;;;;;;23.30;68.70;;;;;;6214654;23;895;-65
2022/08/16 10:25:43;;;;;;;;;;;23.30;68.70;;;;;;6214052;23;1021;-64
2022/08/16 10:28:09;;;;;;;;;;;23.30;68.70;;;;;;6214036;23;1172;-66
2022/08/16 10:30:35;;;;;;;;;;;23.30;68.70;;;;;;6214450;23;978;-65
2022/08/16 10:33:00;;;;;;;;;;;23.30;68.70;;;;;;6212954;23;1014;-66
2022/08/16 10:35:25;;;;;;;;;;;23.30;68.70;;;;;;6213118;23;771;-64
2022/08/16 10:37:51;;;;;;;;;;;23.30;68.70;;;;;;6213970;23;1171;-66
2022/08/16 10:40:17;;;;;;;;;;;23.30;68.90;;;;;;6212756;23;1926;-64
2022/08/16 10:42:42;;;;;;;;;;;23.30;68.60;;;;;;6214170;23;1013;-67
2022/08/16 10:45:08;;;;;;;;;;;23.30;68.70;;;;;;6214547;23;1002;-66
2022/08/16 10:47:34;;;;;;;;;;;23.30;68.60;;;;;;6213878;23;831;-65
2022/08/16 10:50:00;;;;;;;;;;;23.30;68.60;;;;;;6214145;23;1252;-65
2022/08/16 10:52:25;;;;;;;;;;;23.30;68.70;;;;;;6212963;23;807;-66
2022/08/16 10:54:51;;;;;;;;;;;23.30;68.60;;;;;;6214631;23;827;-64
2022/08/16 10:57:16;;;;;;;;;;;23.30;68.60;;;;;;6213736;23;831;-65
2022/08/16 10:59:42;;;;;;;;;;;23.30;68.60;;;;;;6213632;23;1289;-66
2022/08/16 11:02:08;;;;;;;;;;;23.30;68.60;;;;;;6214164;23;1881;-65
2022/08/16 11:04:33;;;;;;;;;;;23.30;68.60;;;;;;6213943;23;781;-65
2022/08/16 11:06:59;;;;;;;;;;;23.30;68.70;;;;;;6214074;23;1031;-65
2022/08/16 11:09:24;;;;;;;;;;;23.30;68.60;;;;;;6214659;23;1188;-65
2022/08/16 11:11:50;;;;;;;;;;;23.30;68.70;;;;;;6216026;23;834;-67
2022/08/16 11:14:17;;;;;;;;;;;23.30;68.60;;;;;;6215695;23;919;-65
2022/08/16 11:16:43;;;;;;;;;;;23.30;68.70;;;;;;6215820;23;859;-65
2022/08/16 11:19:08;;;;;;;;;;;23.30;68.60;;;;;;6214473;23;1265;-65
2022/08/16 11:21:35;;;;;;;;;;;23.30;68.60;;;;;;6216244;23;1890;-65
2022/08/16 11:24:01;;;;;;;;;;;23.30;68.60;;;;;;6216501;23;795;-66
2022/08/16 11:26:27;;;;;;;;;;;23.30;68.60;;;;;;6215378;23;1029;-65
2022/08/16 11:28:55;;;;;;;;;;;23.30;68.70;;;;;;6215612;23;1279;-64
2022/08/16 11:31:20;;;;;;;;;;;23.30;68.60;;;;;;6216263;23;865;-64
2022/08/16 11:33:46;;;;;;;;;;;23.30;68.60;;;;;;6214601;23;1169;-65
2022/08/16 11:36:11;;;;;;;;;;;23.30;68.60;;;;;;6214715;23;788;-66
2022/08/16 11:38:37;;;;;;;;;;;23.30;68.60;;;;;;6215744;23;1184;-67
2022/08/16 11:41:02;;;;;;;;;;;23.30;68.70;;;;;;6216064;23;1925;-66
2022/08/16 11:43:29;;;;;;;;;;;23.30;68.70;;;;;;6215553;23;795;-66
2022/08/16 11:45:55;;;;;;;;;;;23.30;68.70;;;;;;6215492;23;953;-67
2022/08/16 11:48:24;;;;;;;;;;;23.30;68.60;;;;;;6213270;23;1186;-67
2022/08/16 11:50:49;;;;;;;;;;;23.30;68.70;;;;;;6214597;23;803;-68
2022/08/16 11:53:16;;;;;;;;;;;23.30;68.70;;;;;;6214311;23;821;-67
2022/08/16 11:55:41;;;;;;;;;;;23.30;68.60;;;;;;6215504;23;866;-66
2022/08/16 11:58:07;;;;;;;;;;;23.30;68.60;;;;;;6215660;23;1188;-66
2022/08/16 12:00:32;;;;;;;;;;;23.30;68.70;;;;;;6215560;23;1954;-66
2022/08/16 12:02:58;;;;;;;;;;;23.30;68.60;;;;;;6215912;23;1068;-66
2022/08/16 12:05:23;;;;;;;;;;;23.30;68.60;;;;;;6215672;23;985;-66
2022/08/16 12:07:49;;;;;;;;;;;23.30;68.60;;;;;;6215167;23;1269;-66
2022/08/16 12:10:15;;;;;;;;;;;23.30;68.70;;;;;;6215366;23;820;-67
2022/08/16 12:12:41;;;;;;;;;;;23.30;68.60;;;;;;6215722;23;792;-66
2022/08/16 12:15:06;;;;;;;;;;;23.30;68.60;;;;;;6213770;23;816;-67
2022/08/16 12:17:32;;;;;;;;;;;23.30;68.60;;;;;;6215103;23;1039;-66
2022/08/16 12:19:58;;;;;;;;;;;23.30;68.70;;;;;;6212916;23;1922;-67
2022/08/16 12:22:23;;;;;;;;;;;23.30;68.70;;;;;;6215833;23;1014;-65
2022/08/16 12:24:49;;;;;;;;;;;23.30;68.60;;;;;;6213680;23;831;-66
2022/08/16 12:27:14;;;;;;;;;;;23.30;68.70;;;;;;6214358;23;1061;-66
2022/08/16 12:29:40;;;;;;;;;;;23.30;68.70;;;;;;6214070;23;1178;-66
2022/08/16 12:32:05;;;;;;;;;;;23.30;68.70;;;;;;6214333;23;994;-65
2022/08/16 12:34:30;;;;;;;;;;;23.30;68.60;;;;;;6213836;23;788;-64
2022/08/16 12:36:57;;;;;;;;;;;23.30;68.70;;;;;;6212708;23;871;-65
2022/08/16 12:39:22;;;;;;;;;;;23.30;68.70;;;;;;6215177;23;1235;-64
2022/08/16 12:41:48;;;;;;;;;;;23.30;68.70;;;;;;6215659;23;1936;-65
2022/08/16 12:44:13;;;;;;;;;;;23.30;68.70;;;;;;6213646;23;1022;-64
2022/08/16 12:46:39;;;;;;;;;;;23.30;68.60;;;;;;6212713;23;859;-64
2022/08/16 12:49:05;;;;;;;;;;;23.30;68.70;;;;;;6213478;23;1269;-64
2022/08/16 12:51:32;;;;;;;;;;;23.30;68.70;;;;;;6215354;23;835;-67
2022/08/16 12:53:58;;;;;;;;;;;23.30;68.70;;;;;;6213412;23;904;-66
2022/08/16 12:56:28;;;;;;;;;;;23.30;68.70;;;;;;6210899;23;840;-66
2022/08/16 12:58:54;;;;;;;;;;;23.30;68.70;;;;;;6212965;23;1267;-65
2022/08/16 13:01:20;;;;;;;;;;;23.30;68.80;;;;;;6214663;23;1901;-65
2022/08/16 13:03:45;;;;;;;;;;;23.30;68.80;;;;;;6214192;23;890;-64
2022/08/16 13:06:12;;;;;;;;;;;23.30;68.80;;;;;;6213575;23;887;-66
2022/08/16 13:08:37;;;;;;;;;;;23.30;68.80;;;;;;6207589;23;1290;-64
2022/08/16 13:11:03;;;;;;;;;;;23.30;68.80;;;;;;6210767;23;797;-64
2022/08/16 13:13:30;;;;;;;;;;;23.30;68.70;;;;;;6202178;23;819;-64
2022/08/16 13:15:56;;;;;;;;;;;23.30;68.80;;;;;;6211969;23;847;-63
2022/08/16 13:18:22;;;;;;;;;;;23.30;68.80;;;;;;6212563;23;1253;-64
2022/08/16 13:20:47;;;;;;;;;;;23.30;68.80;;;;;;6212642;23;1896;-66
2022/08/16 13:23:13;;;;;;;;;;;23.30;68.80;;;;;;6210320;23;1279;-66
2022/08/16 13:25:39;;;;;;;;;;;23.30;68.80;;;;;;6211567;23;1112;-64
2022/08/16 13:28:05;;;;;;;;;;;23.30;69.50;;;;;;6211199;23;1274;-67
2022/08/16 13:30:31;;;;;;;;;;;23.30;68.80;;;;;;6211072;23;808;-66
2022/08/16 13:32:57;;;;;;;;;;;23.30;68.70;;;;;;6212065;23;835;-64
2022/08/16 13:35:22;;;;;;;;;;;23.30;68.80;;;;;;6212285;23;887;-65
2022/08/16 13:37:48;;;;;;;;;;;23.30;68.80;;;;;;6212289;23;976;-65
2022/08/16 13:40:13;;;;;;;;;;;23.30;68.70;;;;;;6213512;23;1896;-64
2022/08/16 13:42:39;;;;;;;;;;;23.30;68.70;;;;;;6143830;23;9025;-66
2022/08/16 13:45:08;;;;;;;;;;;23.30;68.70;;;;;;6153605;23;966;-66
2022/08/16 13:47:33;;;;;;;;;;;23.30;68.70;;;;;;6151844;23;2228;-65
2022/08/16 13:49:59;;;;;;;;;;;23.30;68.70;;;;;;6153519;23;1295;-66
2022/08/16 13:52:24;;;;;;;;;;;23.30;68.70;;;;;;6154178;23;848;-66
2022/08/16 13:54:50;;;;;;;;;;;23.30;68.70;;;;;;6151855;23;902;-65
2022/08/16 13:57:15;;;;;;;;;;;23.30;68.70;;;;;;6151343;23;835;-65
2022/08/16 13:59:42;;;;;;;;;;;23.30;68.70;;;;;;6152626;23;1204;-67
2022/08/16 14:02:07;;;;;;;;;;;23.30;68.70;;;;;;6154067;23;1936;-65
2022/08/16 14:04:34;;;;;;;;;;;23.30;68.70;;;;;;6152030;23;808;-67
2022/08/16 14:07:00;;;;;;;;;;;23.30;68.70;;;;;;6153064;23;858;-65
2022/08/16 14:09:25;;;;;;;;;;;23.30;68.70;;;;;;6152174;23;1188;-66
2022/08/16 14:11:51;;;;;;;;;;;23.30;68.70;;;;;;6153341;23;812;-64
2022/08/16 14:14:16;;;;;;;;;;;23.30;68.80;;;;;;6153537;23;940;-65
2022/08/16 14:16:42;;;;;;;;;;;23.30;68.80;;;;;;6153441;23;853;-65
2022/08/16 14:19:07;;;;;;;;;;;23.30;68.80;;;;;;6154209;23;1177;-64
2022/08/16 14:21:33;;;;;;;;;;;23.30;68.70;;;;;;6155108;23;1938;-64
2022/08/16 14:23:58;;;;;;;;;;;23.30;68.70;;;;;;6153421;23;922;-64
2022/08/16 14:26:24;;;;;;;;;;;23.30;68.80;;;;;;6152360;23;892;-67
2022/08/16 14:28:51;;;;;;;;;;;23.30;68.70;;;;;;6154509;23;1171;-66